createdAt,value
2018-12-26T00:02:54.620Z,42.43
2018-12-26T00:06:20.537Z,47.87
2018-12-26T00:09:46.407Z,42.70
2018-12-26T00:13:15.160Z,43.70
2018-12-26T00:16:40.690Z,44.83
2018-12-26T00:20:07.199Z,45.13
2018-12-26T00:23:33.395Z,43.57
2018-12-26T00:26:59.097Z,49.10
2018-12-26T00:30:25.333Z,44.27
2018-12-26T00:33:50.917Z,45.87
2018-12-26T00:37:16.569Z,46.13
2018-12-26T00:40:42.223Z,44.57
2018-12-26T00:44:07.768Z,44.00
2018-12-26T00:47:33.312Z,48.23
2018-12-26T00:50:58.921Z,41.70
2018-12-26T00:54:24.440Z,41.47
2018-12-26T00:57:50.081Z,49.90
2018-12-26T01:01:15.652Z,47.57
2018-12-26T01:04:41.607Z,44.13
2018-12-26T01:08:07.129Z,41.87
2018-12-26T01:11:32.694Z,45.60
2018-12-26T01:14:58.611Z,47.93
2018-12-26T01:18:24.265Z,46.97
2018-12-26T01:21:49.867Z,48.63
2018-12-26T01:25:15.966Z,50.57
2018-12-26T01:28:41.599Z,46.70
2018-12-26T01:32:07.187Z,55.77
2018-12-26T01:35:32.737Z,48.17
2018-12-26T01:38:58.358Z,45.37
2018-12-26T01:42:24.128Z,47.60
2018-12-26T01:45:49.660Z,49.83
2018-12-26T01:49:15.246Z,44.60
2018-12-26T01:52:41.094Z,48.83
2018-12-26T01:56:07.928Z,47.00
2018-12-26T01:59:33.473Z,46.67
2018-12-26T02:02:59.081Z,45.87
2018-12-26T02:06:24.760Z,55.40
2018-12-26T02:09:50.301Z,47.37
2018-12-26T02:13:15.893Z,50.10
2018-12-26T02:16:41.421Z,48.47
2018-12-26T02:20:07.417Z,47.70
2018-12-26T02:23:32.972Z,48.00
2018-12-26T02:26:58.881Z,48.60
2018-12-26T02:30:24.423Z,51.50
2018-12-26T02:33:50.627Z,48.73
2018-12-26T02:37:16.197Z,48.20
2018-12-26T02:40:41.746Z,47.87
2018-12-26T02:44:07.328Z,51.27
2018-12-26T02:47:32.932Z,52.37
2018-12-26T02:50:58.675Z,53.93
2018-12-26T02:54:24.251Z,51.40
2018-12-26T02:57:49.855Z,55.73
2018-12-26T03:01:15.414Z,48.80
2018-12-26T03:04:40.951Z,45.63
2018-12-26T03:08:06.501Z,48.37
2018-12-26T03:11:32.320Z,51.20
2018-12-26T03:14:57.954Z,47.73
2018-12-26T03:18:23.784Z,48.53
2018-12-26T03:21:49.347Z,50.60
2018-12-26T03:25:14.929Z,49.00
2018-12-26T03:28:40.450Z,47.43
2018-12-26T03:32:06.006Z,56.90
2018-12-26T03:35:31.572Z,49.27
2018-12-26T03:38:57.642Z,56.03
2018-12-26T03:42:23.159Z,54.33
2018-12-26T03:45:49.303Z,45.90
2018-12-26T03:49:14.859Z,49.80
2018-12-26T03:52:40.665Z,49.53
2018-12-26T03:56:06.367Z,55.53
2018-12-26T03:59:31.937Z,53.07
2018-12-26T04:02:57.503Z,48.77
2018-12-26T04:06:23.101Z,44.07
2018-12-26T04:09:48.960Z,49.40
2018-12-26T04:13:14.486Z,46.70
2018-12-26T04:16:40.687Z,52.20
2018-12-26T04:20:06.659Z,52.20
2018-12-26T04:23:32.253Z,51.43
2018-12-26T04:26:57.775Z,53.47
2018-12-26T04:30:23.371Z,46.10
2018-12-26T04:33:49.231Z,45.13
2018-12-26T04:37:14.854Z,46.23
2018-12-26T04:40:40.424Z,51.63
2018-12-26T04:44:05.980Z,50.53
2018-12-26T04:47:31.532Z,52.20
2018-12-26T04:50:57.085Z,47.33
2018-12-26T04:54:22.675Z,48.23
2018-12-26T04:57:48.253Z,48.13
2018-12-26T05:01:14.103Z,46.87
2018-12-26T05:04:40.008Z,50.43
2018-12-26T05:08:05.581Z,44.27
2018-12-26T05:11:31.181Z,46.40
2018-12-26T05:14:56.735Z,49.03
2018-12-26T05:18:22.328Z,45.17
2018-12-26T05:21:47.902Z,46.50
2018-12-26T05:25:13.466Z,48.03
2018-12-26T05:28:39.015Z,48.47
2018-12-26T05:32:04.568Z,41.17
2018-12-26T05:35:30.111Z,40.37
2018-12-26T05:38:55.670Z,42.57
2018-12-26T05:42:21.221Z,45.40
2018-12-26T05:45:46.754Z,41.67
2018-12-26T05:49:12.391Z,40.87
2018-12-26T05:52:37.944Z,41.47
2018-12-26T05:56:03.483Z,44.57
2018-12-26T05:59:29.038Z,39.63
2018-12-26T06:02:54.620Z,42.30
2018-12-26T06:06:20.202Z,41.03
2018-12-26T06:09:45.738Z,44.90
2018-12-26T06:13:11.287Z,38.77
2018-12-26T06:16:36.812Z,39.67
2018-12-26T06:20:02.348Z,38.43
2018-12-26T06:23:27.927Z,38.63
2018-12-26T06:26:53.781Z,41.30
2018-12-26T06:30:19.378Z,40.93
2018-12-26T06:33:45.326Z,41.00
2018-12-26T06:37:10.883Z,38.73
2018-12-26T06:40:36.790Z,44.40
2018-12-26T06:44:02.655Z,44.23
2018-12-26T06:47:28.524Z,45.10
2018-12-26T06:50:54.043Z,47.47
2018-12-26T06:54:19.870Z,45.93
2018-12-26T06:57:45.439Z,41.33
2018-12-26T07:01:11.056Z,41.43
2018-12-26T07:04:36.628Z,42.43
2018-12-26T07:08:02.238Z,44.80
2018-12-26T07:11:27.814Z,43.80
2018-12-26T07:14:53.375Z,40.80
2018-12-26T07:18:18.967Z,44.93
2018-12-26T07:21:44.538Z,45.27
2018-12-26T07:25:10.196Z,43.37
2018-12-26T07:28:35.799Z,45.23
2018-12-26T07:32:01.424Z,36.93
2018-12-26T07:35:26.959Z,41.70
2018-12-26T07:38:52.498Z,40.87
2018-12-26T07:42:18.401Z,39.07
2018-12-26T07:45:44.043Z,40.17
2018-12-26T07:49:09.862Z,43.07
2018-12-26T07:52:35.629Z,40.80
2018-12-26T07:56:01.159Z,37.27
2018-12-26T07:59:26.713Z,36.87
2018-12-26T08:02:52.542Z,37.30
2018-12-26T08:06:18.460Z,39.17
2018-12-26T08:09:44.037Z,37.53
2018-12-26T08:13:09.638Z,36.87
2018-12-26T08:16:35.209Z,37.00
2018-12-26T08:20:01.043Z,44.23
2018-12-26T08:23:26.620Z,38.13
2018-12-26T08:26:53.654Z,37.63
2018-12-26T08:30:19.369Z,34.27
2018-12-26T08:33:44.934Z,31.53
2018-12-26T08:37:10.497Z,33.07
2018-12-26T08:40:36.054Z,35.80
2018-12-26T08:44:01.631Z,34.40
2018-12-26T08:47:27.565Z,34.87
2018-12-26T08:50:53.252Z,37.77
2018-12-26T08:54:18.799Z,36.53
2018-12-26T08:57:44.421Z,32.00
2018-12-26T09:01:09.964Z,30.10
2018-12-26T09:04:35.839Z,33.40
2018-12-26T09:08:01.632Z,33.03
2018-12-26T09:11:27.200Z,30.03
2018-12-26T09:14:52.731Z,34.73
2018-12-26T09:18:18.661Z,30.23
2018-12-26T09:21:44.212Z,28.97
2018-12-26T09:25:09.770Z,28.60
2018-12-26T09:28:43.637Z,31.30
2018-12-26T09:32:02.558Z,30.67
2018-12-26T09:35:28.107Z,28.07
2018-12-26T09:38:53.739Z,28.20
2018-12-26T09:42:19.340Z,29.07
2018-12-26T09:45:44.871Z,25.63
2018-12-26T09:49:10.419Z,27.93
2018-12-26T09:52:36.001Z,28.33
2018-12-26T09:56:01.529Z,29.20
2018-12-26T09:59:27.253Z,27.93
2018-12-26T10:02:52.939Z,28.90
2018-12-26T10:06:18.515Z,27.40
2018-12-26T10:09:44.153Z,27.37
2018-12-26T10:13:10.040Z,30.93
2018-12-26T10:16:35.880Z,26.40
2018-12-26T10:20:01.445Z,27.97
2018-12-26T10:23:27.037Z,28.57
2018-12-26T10:26:52.715Z,35.63
2018-12-26T10:30:18.333Z,29.93
2018-12-26T10:33:46.999Z,33.10
2018-12-26T10:37:12.505Z,29.47
2018-12-26T10:40:38.387Z,28.13
2018-12-26T10:44:03.912Z,28.57
2018-12-26T10:47:29.500Z,27.07
2018-12-26T10:50:55.018Z,26.30
2018-12-26T10:54:20.549Z,25.73
2018-12-26T10:57:46.325Z,27.00
2018-12-26T11:01:12.118Z,26.53
2018-12-26T11:04:37.712Z,27.30
2018-12-26T11:08:03.235Z,26.27
2018-12-26T11:11:28.849Z,28.77
2018-12-26T11:14:54.388Z,26.17
2018-12-26T11:18:20.134Z,24.80
2018-12-26T11:21:45.679Z,21.37
2018-12-26T11:25:11.207Z,24.57
2018-12-26T11:28:36.826Z,24.87
2018-12-26T11:32:02.362Z,24.33
2018-12-26T11:35:27.902Z,24.50
2018-12-26T11:38:54.138Z,23.10
2018-12-26T11:42:19.920Z,24.20
2018-12-26T11:45:45.512Z,24.80
2018-12-26T11:49:11.101Z,23.03
2018-12-26T11:52:36.659Z,21.00
2018-12-26T11:56:02.484Z,22.97
2018-12-26T11:59:28.350Z,21.67
2018-12-26T12:02:53.873Z,20.87
2018-12-26T12:06:19.482Z,21.70
2018-12-26T12:09:45.102Z,20.67
2018-12-26T12:13:10.669Z,24.20
2018-12-26T12:16:36.186Z,20.77
2018-12-26T12:20:01.729Z,21.73
2018-12-26T12:23:27.326Z,24.07
2018-12-26T12:26:53.309Z,24.03
2018-12-26T12:30:18.968Z,23.80
2018-12-26T12:33:47.971Z,27.03
2018-12-26T12:37:13.585Z,21.73
2018-12-26T12:40:39.231Z,21.37
2018-12-26T12:44:05.266Z,21.57
2018-12-26T12:47:30.819Z,24.30
2018-12-26T12:50:56.435Z,20.67
2018-12-26T12:54:22.070Z,19.57
2018-12-26T12:57:47.663Z,21.43
2018-12-26T13:01:13.566Z,22.73
2018-12-26T13:04:39.356Z,18.73
2018-12-26T13:08:04.906Z,21.57
2018-12-26T13:11:30.446Z,26.73
2018-12-26T13:14:56.239Z,20.50
2018-12-26T13:18:21.819Z,19.10
2018-12-26T13:21:49.491Z,20.17
2018-12-26T13:25:15.070Z,19.07
2018-12-26T13:28:43.602Z,21.37
2018-12-26T13:32:09.159Z,24.27
2018-12-26T13:35:34.960Z,32.83
2018-12-26T13:39:00.528Z,22.00
2018-12-26T13:42:26.083Z,26.13
2018-12-26T13:45:51.916Z,23.40
2018-12-26T13:49:17.472Z,24.07
2018-12-26T13:52:43.010Z,25.87
2018-12-26T13:56:08.712Z,23.50
2018-12-26T13:59:34.349Z,24.20
2018-12-26T14:02:59.979Z,27.10
2018-12-26T14:06:25.568Z,19.63
2018-12-26T14:09:51.166Z,20.93
2018-12-26T14:13:16.705Z,21.53
2018-12-26T14:16:42.259Z,28.67
2018-12-26T14:20:08.030Z,24.40
2018-12-26T14:23:33.560Z,22.27
2018-12-26T14:26:59.180Z,28.90
2018-12-26T14:30:24.802Z,21.10
2018-12-26T14:33:50.391Z,21.93
2018-12-26T14:37:16.464Z,21.87
2018-12-26T14:40:42.009Z,24.33
2018-12-26T14:44:07.579Z,24.00
2018-12-26T14:47:33.200Z,29.27
2018-12-26T14:50:58.751Z,25.33
2018-12-26T14:54:24.491Z,22.73
2018-12-26T14:57:50.585Z,20.63
2018-12-26T15:01:16.424Z,22.33
2018-12-26T15:04:41.929Z,21.93
2018-12-26T15:08:07.500Z,22.70
2018-12-26T15:11:33.085Z,18.37
2018-12-26T15:14:58.968Z,24.43
2018-12-26T15:18:24.844Z,23.83
2018-12-26T15:21:50.388Z,22.03
2018-12-26T15:25:15.933Z,25.00
2018-12-26T15:28:41.454Z,23.17
2018-12-26T15:32:07.032Z,22.83
2018-12-26T15:35:33.225Z,23.20
2018-12-26T15:38:58.950Z,20.30
2018-12-26T15:42:24.471Z,26.43
2018-12-26T15:45:50.074Z,25.23
2018-12-26T15:49:15.623Z,19.87
2018-12-26T15:52:41.654Z,21.83
2018-12-26T15:56:08.657Z,22.47
2018-12-26T15:59:34.175Z,22.90
2018-12-26T16:02:59.772Z,27.07
2018-12-26T16:06:25.323Z,26.67
2018-12-26T16:09:51.197Z,25.33
2018-12-26T16:13:17.014Z,25.67
2018-12-26T16:16:42.801Z,24.57
2018-12-26T16:20:10.558Z,25.37
2018-12-26T16:23:36.083Z,26.97
2018-12-26T16:27:01.613Z,23.33
2018-12-26T16:30:27.174Z,25.23
2018-12-26T16:33:52.753Z,25.23
2018-12-26T16:37:18.340Z,27.70
2018-12-26T16:40:43.871Z,24.97
2018-12-26T16:44:10.343Z,30.20
2018-12-26T16:47:36.158Z,32.77
2018-12-26T16:51:01.670Z,26.43
2018-12-26T16:54:27.224Z,23.47
2018-12-26T16:57:52.780Z,27.93
2018-12-26T17:01:18.417Z,24.50
2018-12-26T17:04:44.233Z,25.07
2018-12-26T17:08:09.814Z,23.80
2018-12-26T17:11:35.362Z,27.90
2018-12-26T17:15:00.938Z,29.27
2018-12-26T17:18:26.474Z,21.97
2018-12-26T17:21:52.045Z,23.37
2018-12-26T17:25:17.592Z,25.27
2018-12-26T17:28:43.111Z,21.73
2018-12-26T17:32:08.625Z,25.90
2018-12-26T17:35:34.450Z,26.03
2018-12-26T17:39:00.093Z,26.77
2018-12-26T17:42:25.637Z,24.23
2018-12-26T17:45:51.240Z,26.13
2018-12-26T17:49:16.884Z,32.43
2018-12-26T17:52:42.429Z,24.87
2018-12-26T17:56:38.116Z,25.23
2018-12-26T18:01:00.121Z,22.23
2018-12-26T18:04:25.715Z,24.03
2018-12-26T18:07:51.276Z,27.37
2018-12-26T18:11:16.917Z,24.83
2018-12-26T18:14:42.495Z,29.27
2018-12-26T18:18:08.053Z,24.60
2018-12-26T18:21:33.606Z,25.23
2018-12-26T18:25:00.313Z,28.70
2018-12-26T18:28:26.063Z,28.50
2018-12-26T18:31:51.619Z,23.53
2018-12-26T18:35:17.238Z,28.80
2018-12-26T18:38:43.029Z,21.90
2018-12-26T18:42:08.552Z,26.43
2018-12-26T18:45:34.403Z,26.60
2018-12-26T18:48:59.993Z,30.43
2018-12-26T18:52:25.524Z,27.80
2018-12-26T18:55:51.102Z,29.73
2018-12-26T18:59:16.684Z,26.30
2018-12-26T19:02:42.218Z,31.07
2018-12-26T19:06:08.340Z,26.80
2018-12-26T19:09:33.880Z,26.70
2018-12-26T19:12:59.443Z,26.43
2018-12-26T19:16:25.019Z,25.67
2018-12-26T19:19:50.679Z,26.83
2018-12-26T19:23:16.273Z,28.20
2018-12-26T19:26:41.928Z,26.60
2018-12-26T19:30:11.791Z,28.23
2018-12-26T19:33:37.611Z,29.30
2018-12-26T19:37:03.545Z,26.73
2018-12-26T19:40:29.066Z,27.07
2018-12-26T19:43:54.991Z,25.10
2018-12-26T19:47:20.504Z,29.27
2018-12-26T19:50:46.102Z,26.30
2018-12-26T19:54:11.750Z,28.20
2018-12-26T19:57:37.386Z,28.97
2018-12-26T20:01:02.987Z,25.50
2018-12-26T20:04:28.593Z,28.50
2018-12-26T20:07:54.215Z,28.23
2018-12-26T20:11:19.754Z,27.17
2018-12-26T20:14:45.631Z,28.17
2018-12-26T20:18:11.265Z,30.50
2018-12-26T20:21:36.804Z,26.17
2018-12-26T20:25:02.420Z,32.40
2018-12-26T20:28:28.047Z,26.17
2018-12-26T20:31:57.054Z,23.67
2018-12-26T20:35:21.245Z,25.10
2018-12-26T20:38:46.867Z,31.07
2018-12-26T20:42:12.727Z,23.00
2018-12-26T20:45:38.326Z,26.90
2018-12-26T20:49:03.961Z,27.87
2018-12-26T20:52:29.577Z,26.10
2018-12-26T20:55:55.408Z,25.90
2018-12-26T20:59:21.713Z,25.30
2018-12-26T21:02:47.549Z,25.80
2018-12-26T21:06:13.423Z,28.00
2018-12-26T21:09:39.002Z,27.27
2018-12-26T21:13:04.602Z,28.53
2018-12-26T21:16:30.169Z,25.57
2018-12-26T21:19:55.820Z,24.03
2018-12-26T21:23:21.541Z,22.63
2018-12-26T21:26:47.416Z,22.07
2018-12-26T21:30:15.779Z,24.43
2018-12-26T21:33:41.416Z,21.10
2018-12-26T21:37:06.947Z,25.07
2018-12-26T21:40:32.503Z,22.30
2018-12-26T21:43:58.190Z,21.80
2018-12-26T21:47:24.019Z,22.30
2018-12-26T21:50:49.591Z,22.60
2018-12-26T21:54:15.160Z,22.53
2018-12-26T21:57:41.072Z,20.20
2018-12-26T22:01:06.623Z,23.47
2018-12-26T22:04:32.468Z,20.00
2018-12-26T22:07:58.355Z,19.93
2018-12-26T22:11:23.928Z,17.10
2018-12-26T22:14:49.508Z,20.07
2018-12-26T22:18:15.065Z,21.37
2018-12-26T22:21:44.064Z,21.77
2018-12-26T22:25:09.594Z,19.07
2018-12-26T22:28:35.140Z,18.73
2018-12-26T22:32:00.684Z,22.53
2018-12-26T22:35:26.366Z,20.90
2018-12-26T22:38:52.248Z,22.73
2018-12-26T22:42:17.780Z,19.40
2018-12-26T22:45:44.254Z,23.27
2018-12-26T22:49:09.839Z,23.53
2018-12-26T22:52:35.397Z,20.80
2018-12-26T22:56:00.994Z,19.87
2018-12-26T22:59:26.562Z,19.90
2018-12-26T23:02:52.083Z,20.93
2018-12-26T23:06:17.669Z,21.67
2018-12-26T23:09:43.216Z,20.13
2018-12-26T23:13:08.793Z,21.43
2018-12-26T23:16:34.458Z,19.20
2018-12-26T23:20:00.597Z,22.77
2018-12-26T23:23:26.143Z,21.83
2018-12-26T23:26:51.668Z,23.57
2018-12-26T23:30:17.189Z,21.83
2018-12-26T23:33:42.751Z,24.33
2018-12-26T23:37:08.344Z,23.70
2018-12-26T23:40:33.919Z,27.90
2018-12-26T23:43:59.470Z,25.53
2018-12-26T23:47:24.998Z,24.73
2018-12-26T23:50:50.699Z,23.37
2018-12-26T23:54:16.289Z,21.87
2018-12-26T23:57:41.914Z,23.73
